createdAt,value
2023-03-03T00:01:41.898Z,61.83
2023-03-03T00:04:09.846Z,61.07
2023-03-03T00:06:37.815Z,61.70
2023-03-03T00:09:07.120Z,71.53
2023-03-03T00:11:35.025Z,72.83
2023-03-03T00:14:02.943Z,67.20
2023-03-03T00:16:36.474Z,66.43
2023-03-03T00:19:04.938Z,57.50
2023-03-03T00:21:34.398Z,86.77
2023-03-03T00:24:24.537Z,70.93
2023-03-03T00:26:55.546Z,64.97
2023-03-03T00:29:36.202Z,55.23
2023-03-03T00:32:26.140Z,62.93
2023-03-03T00:34:56.193Z,61.23
2023-03-03T00:37:29.206Z,63.20
2023-03-03T00:40:15.013Z,61.60
2023-03-03T00:42:44.169Z,59.63
2023-03-03T00:45:25.600Z,60.27
2023-03-03T00:47:53.832Z,63.53
2023-03-03T00:50:33.415Z,63.93
2023-03-03T00:53:07.369Z,58.17
2023-03-03T00:55:37.212Z,60.73
2023-03-03T00:58:05.791Z,57.73
2023-03-03T01:00:38.754Z,58.17
2023-03-03T01:03:10.631Z,66.47
2023-03-03T01:05:38.704Z,62.17
2023-03-03T01:08:07.156Z,62.13
2023-03-03T01:10:40.354Z,56.47
2023-03-03T01:13:09.532Z,57.57
2023-03-03T01:15:38.822Z,64.27
2023-03-03T01:18:06.993Z,58.10
2023-03-03T01:20:35.055Z,64.20
2023-03-03T01:23:03.166Z,61.77
2023-03-03T01:25:31.284Z,68.33
2023-03-03T01:28:01.228Z,63.20
2023-03-03T01:30:29.655Z,63.60
2023-03-03T01:32:57.706Z,59.10
2023-03-03T01:35:25.760Z,59.60
2023-03-03T01:37:53.781Z,65.20
2023-03-03T01:40:24.768Z,68.30
2023-03-03T01:42:53.418Z,62.37
2023-03-03T01:45:25.567Z,58.10
2023-03-03T01:47:57.732Z,60.73
2023-03-03T01:50:37.057Z,62.10
2023-03-03T01:53:07.831Z,61.30
2023-03-03T01:55:40.707Z,63.13
2023-03-03T01:58:12.198Z,59.77
2023-03-03T02:00:45.992Z,61.17
2023-03-03T02:03:13.976Z,58.60
2023-03-03T02:05:44.319Z,63.73
2023-03-03T02:08:16.276Z,64.27
2023-03-03T02:10:46.012Z,57.77
2023-03-03T02:13:13.954Z,67.93
2023-03-03T02:15:43.732Z,63.23
2023-03-03T02:18:14.364Z,61.00
2023-03-03T02:20:58.463Z,63.87
2023-03-03T02:23:32.818Z,63.57
2023-03-03T02:26:08.085Z,61.60
2023-03-03T02:28:38.470Z,61.37
2023-03-03T02:31:13.379Z,63.33
2023-03-03T02:33:43.466Z,61.53
2023-03-03T02:36:14.955Z,61.20
2023-03-03T02:38:49.605Z,60.37
2023-03-03T02:41:28.045Z,59.67
2023-03-03T02:44:00.556Z,65.53
2023-03-03T02:46:30.016Z,70.33
2023-03-03T02:48:57.970Z,64.27
2023-03-03T02:51:26.047Z,64.03
2023-03-03T02:53:53.986Z,69.73
2023-03-03T02:56:23.447Z,62.77
2023-03-03T02:58:51.389Z,64.80
2023-03-03T03:01:20.333Z,61.77
2023-03-03T03:03:48.529Z,67.13
2023-03-03T03:06:20.533Z,64.30
2023-03-03T03:08:48.938Z,62.33
2023-03-03T03:11:17.194Z,67.43
2023-03-03T03:13:46.710Z,69.17
2023-03-03T03:16:14.642Z,66.03
2023-03-03T03:18:42.743Z,70.57
2023-03-03T03:21:12.835Z,64.63
2023-03-03T03:23:42.017Z,63.83
2023-03-03T03:26:10.804Z,65.80
2023-03-03T03:28:39.638Z,66.70
2023-03-03T03:31:10.639Z,73.20
2023-03-03T03:33:38.790Z,69.50
2023-03-03T03:36:08.819Z,66.37
2023-03-03T03:38:37.781Z,70.23
2023-03-03T03:41:08.931Z,68.57
2023-03-03T03:43:37.213Z,63.67
2023-03-03T03:46:05.797Z,71.00
2023-03-03T03:48:36.283Z,71.07
2023-03-03T03:51:06.675Z,65.37
2023-03-03T03:53:35.692Z,69.17
2023-03-03T03:56:03.667Z,69.47
2023-03-03T03:58:32.285Z,76.03
2023-03-03T04:01:05.908Z,70.50
2023-03-03T04:03:38.071Z,71.63
2023-03-03T04:06:11.438Z,71.90
2023-03-03T04:08:39.627Z,70.23
2023-03-03T04:11:09.480Z,68.93
2023-03-03T04:13:38.485Z,75.57
2023-03-03T04:16:08.652Z,69.37
2023-03-03T04:18:38.641Z,71.07
2023-03-03T04:21:07.444Z,70.57
2023-03-03T04:23:35.650Z,72.10
2023-03-03T04:26:04.041Z,70.10
2023-03-03T04:28:32.052Z,75.13
2023-03-03T04:31:00.935Z,70.63
2023-03-03T04:33:31.337Z,69.63
2023-03-03T04:36:01.553Z,74.43
2023-03-03T04:38:30.127Z,68.33
2023-03-03T04:40:58.424Z,71.07
2023-03-03T04:43:29.267Z,71.17
2023-03-03T04:45:58.218Z,70.53
2023-03-03T04:48:26.456Z,69.07
2023-03-03T04:50:55.034Z,74.43
2023-03-03T04:53:24.429Z,73.37
2023-03-03T04:55:54.057Z,73.77
2023-03-03T04:58:23.630Z,74.83
2023-03-03T05:00:56.253Z,67.27
2023-03-03T05:03:27.157Z,71.13
2023-03-03T05:05:55.148Z,76.83
2023-03-03T05:08:25.065Z,69.40
2023-03-03T05:10:54.157Z,72.00
2023-03-03T05:13:22.725Z,69.33
2023-03-03T05:15:52.255Z,67.80
2023-03-03T05:18:20.983Z,72.90
2023-03-03T05:20:49.085Z,70.90
2023-03-03T05:23:17.177Z,68.63
2023-03-03T05:25:47.979Z,71.00
2023-03-03T05:28:16.315Z,72.37
2023-03-03T05:30:44.400Z,71.60
2023-03-03T05:33:15.191Z,71.40
2023-03-03T05:35:43.488Z,69.47
2023-03-03T05:38:11.722Z,72.90
2023-03-03T05:40:39.886Z,66.07
2023-03-03T05:43:09.191Z,70.90
2023-03-03T05:45:37.127Z,67.67
2023-03-03T05:48:05.325Z,70.57
2023-03-03T05:50:33.603Z,70.07
2023-03-03T05:53:01.542Z,67.17
2023-03-03T05:55:29.604Z,68.80
2023-03-03T05:57:57.698Z,67.27
2023-03-03T06:00:27.334Z,72.40
2023-03-03T06:02:55.344Z,74.90
2023-03-03T06:05:23.483Z,68.67
2023-03-03T06:07:51.377Z,71.93
2023-03-03T06:10:19.574Z,73.37
2023-03-03T06:12:52.221Z,75.97
2023-03-03T06:15:20.309Z,73.13
2023-03-03T06:17:49.732Z,72.80
2023-03-03T06:20:17.913Z,75.07
2023-03-03T06:22:45.929Z,81.63
2023-03-03T06:25:13.996Z,73.03
2023-03-03T06:27:41.909Z,75.63
2023-03-03T06:30:11.269Z,76.30
2023-03-03T06:32:39.363Z,72.93
2023-03-03T06:35:09.438Z,74.63
2023-03-03T06:37:37.391Z,77.27
2023-03-03T06:40:07.111Z,71.30
2023-03-03T06:42:35.161Z,74.27
2023-03-03T06:45:03.089Z,77.07
2023-03-03T06:47:31.656Z,75.30
2023-03-03T06:49:59.596Z,70.40
2023-03-03T06:52:28.992Z,69.23
2023-03-03T06:54:59.615Z,74.97
2023-03-03T06:57:29.607Z,72.00
2023-03-03T07:00:01.673Z,70.80
2023-03-03T07:02:29.660Z,75.90
2023-03-03T07:04:58.010Z,71.20
2023-03-03T07:07:28.056Z,79.73
2023-03-03T07:09:57.526Z,78.20
2023-03-03T07:12:27.544Z,83.50
2023-03-03T07:15:01.517Z,74.37
2023-03-03T07:17:29.437Z,76.53
2023-03-03T07:19:57.378Z,83.30
2023-03-03T07:22:30.265Z,84.83
2023-03-03T07:25:01.961Z,76.47
2023-03-03T07:27:31.751Z,78.83
2023-03-03T07:30:18.744Z,76.90
2023-03-03T07:32:48.566Z,78.07
2023-03-03T07:35:38.872Z,78.97
2023-03-03T07:38:26.271Z,84.00
2023-03-03T07:40:56.209Z,69.43
2023-03-03T07:43:32.146Z,75.83
2023-03-03T07:46:05.883Z,74.60
2023-03-03T07:48:40.210Z,73.63
2023-03-03T07:51:15.656Z,76.93
2023-03-03T07:53:45.042Z,76.27
2023-03-03T07:56:28.660Z,81.00
2023-03-03T07:58:57.644Z,79.10
2023-03-03T08:01:42.627Z,79.17
2023-03-03T08:04:25.063Z,79.50
2023-03-03T08:06:55.533Z,83.17
2023-03-03T08:09:39.338Z,84.23
2023-03-03T08:12:31.457Z,74.53
2023-03-03T08:15:13.254Z,78.33
2023-03-03T08:17:43.704Z,83.67
2023-03-03T08:20:42.873Z,80.83
2023-03-03T08:23:10.807Z,86.60
2023-03-03T08:25:41.004Z,84.80
2023-03-03T08:28:09.204Z,78.97
2023-03-03T08:30:37.178Z,78.13
2023-03-03T08:33:05.453Z,73.83
2023-03-03T08:35:33.422Z,79.37
2023-03-03T08:38:01.468Z,82.70
2023-03-03T08:40:29.420Z,76.90
2023-03-03T08:42:59.236Z,78.23
2023-03-03T08:45:27.666Z,75.87
2023-03-03T08:47:55.667Z,81.20
2023-03-03T08:50:24.041Z,81.70
2023-03-03T08:52:52.027Z,78.23
2023-03-03T08:55:19.975Z,83.20
2023-03-03T08:57:48.287Z,88.13
2023-03-03T09:00:20.565Z,83.23
2023-03-03T09:02:49.321Z,78.70
2023-03-03T09:05:17.757Z,77.87
2023-03-03T09:07:47.933Z,81.03
2023-03-03T09:10:19.077Z,79.97
2023-03-03T09:12:49.405Z,74.07
2023-03-03T09:15:24.606Z,82.00
2023-03-03T09:17:53.115Z,78.63
2023-03-03T09:20:31.731Z,73.40
2023-03-03T09:23:00.195Z,72.63
2023-03-03T09:25:34.390Z,74.60
2023-03-03T09:28:03.240Z,77.43
2023-03-03T09:30:39.893Z,80.37
2023-03-03T09:33:33.436Z,83.00
2023-03-03T09:36:11.155Z,80.83
2023-03-03T09:38:45.810Z,77.43
2023-03-03T09:41:46.700Z,83.40
2023-03-03T09:44:33.224Z,78.13
2023-03-03T09:47:24.186Z,82.07
2023-03-03T09:50:02.936Z,75.83
2023-03-03T09:52:41.668Z,83.00
2023-03-03T09:55:25.596Z,80.27
2023-03-03T09:58:11.125Z,82.03
2023-03-03T10:00:52.528Z,79.63
2023-03-03T10:03:47.016Z,79.70
2023-03-03T10:06:23.185Z,77.07
2023-03-03T10:09:07.959Z,76.67
2023-03-03T10:11:43.057Z,82.13
2023-03-03T10:14:37.124Z,78.00
2023-03-03T10:17:22.797Z,72.20
2023-03-03T10:20:07.995Z,75.50
2023-03-03T10:22:44.342Z,68.77
2023-03-03T10:25:22.508Z,69.63
2023-03-03T10:28:05.770Z,76.03
2023-03-03T10:30:58.561Z,74.53
2023-03-03T10:33:39.074Z,74.07
2023-03-03T10:36:30.462Z,72.47
2023-03-03T10:39:19.388Z,71.70
2023-03-03T10:42:04.466Z,71.90
2023-03-03T10:44:47.204Z,74.37
2023-03-03T10:47:29.805Z,77.20
2023-03-03T10:50:08.803Z,76.50
2023-03-03T10:52:48.028Z,82.53
2023-03-03T10:55:29.604Z,77.97
2023-03-03T10:58:13.172Z,77.80
2023-03-03T11:00:46.492Z,82.93
2023-03-03T11:03:52.795Z,89.03
2023-03-03T11:06:26.173Z,84.77
2023-03-03T11:09:03.527Z,82.63
2023-03-03T11:11:41.561Z,83.67
2023-03-03T11:14:14.938Z,84.37
2023-03-03T11:16:51.881Z,90.30
2023-03-03T11:19:41.563Z,90.33
2023-03-03T11:22:22.546Z,79.10
2023-03-03T11:25:01.472Z,83.93
2023-03-03T11:28:08.343Z,83.77
2023-03-03T11:30:48.056Z,83.33
2023-03-03T11:33:21.867Z,88.40
2023-03-03T11:35:54.470Z,85.37
2023-03-03T11:38:35.652Z,86.63
2023-03-03T11:41:12.976Z,85.63
2023-03-03T11:43:46.749Z,87.57
2023-03-03T11:46:18.131Z,84.40
2023-03-03T11:48:55.146Z,85.90
2023-03-03T11:51:34.227Z,84.10
2023-03-03T11:54:06.735Z,89.20
2023-03-03T11:56:41.635Z,87.80
2023-03-03T11:59:30.214Z,84.20
2023-03-03T12:02:01.253Z,88.50
2023-03-03T12:04:35.664Z,81.63
2023-03-03T12:07:19.810Z,87.17
2023-03-03T12:09:57.974Z,86.97
2023-03-03T12:12:34.270Z,79.90
2023-03-03T12:15:20.659Z,82.83
2023-03-03T12:18:03.855Z,80.20
2023-03-03T12:20:38.938Z,88.60
2023-03-03T12:23:21.482Z,77.00
2023-03-03T12:25:56.038Z,77.73
2023-03-03T12:28:28.795Z,83.47
2023-03-03T12:31:08.625Z,84.00
2023-03-03T12:33:51.399Z,82.47
2023-03-03T12:36:33.992Z,81.20
2023-03-03T12:39:08.646Z,79.57
2023-03-03T12:41:44.333Z,88.77
2023-03-03T12:44:23.222Z,85.17
2023-03-03T12:47:01.820Z,86.40
2023-03-03T12:49:43.395Z,84.63
2023-03-03T12:52:24.321Z,81.13
2023-03-03T12:55:06.773Z,86.37
2023-03-03T12:57:44.189Z,85.87
2023-03-03T13:00:44.833Z,81.37
2023-03-03T13:03:30.363Z,81.73
2023-03-03T13:06:08.240Z,83.13
2023-03-03T13:08:52.928Z,78.40
2023-03-03T13:11:35.415Z,84.60
2023-03-03T13:14:14.844Z,81.77
2023-03-03T13:16:50.350Z,85.13
2023-03-03T13:19:23.061Z,81.40
2023-03-03T13:21:56.028Z,66.20
2023-03-03T13:24:30.218Z,77.17
2023-03-03T13:27:02.562Z,85.87
2023-03-03T13:29:36.445Z,81.63
2023-03-03T13:32:13.629Z,78.00
2023-03-03T13:34:52.741Z,76.07
2023-03-03T13:37:24.925Z,77.70
2023-03-03T13:39:59.723Z,77.50
2023-03-03T13:42:34.655Z,77.43
2023-03-03T13:45:07.974Z,77.93
2023-03-03T13:47:47.149Z,76.33
2023-03-03T13:50:25.163Z,77.17
2023-03-03T13:53:12.577Z,78.87
2023-03-03T13:55:44.829Z,82.50
2023-03-03T13:58:24.815Z,70.77
2023-03-03T14:00:58.664Z,73.90
2023-03-03T14:03:48.448Z,65.07
2023-03-03T14:06:19.037Z,78.50
2023-03-03T14:09:00.805Z,71.87
2023-03-03T14:11:36.583Z,78.13
2023-03-03T14:14:14.802Z,79.53
2023-03-03T14:16:51.588Z,80.40
2023-03-03T14:19:26.401Z,79.57
2023-03-03T14:22:07.071Z,78.30
2023-03-03T14:25:01.750Z,82.60
2023-03-03T14:27:36.231Z,81.10
2023-03-03T14:30:28.536Z,76.37
2023-03-03T14:33:30.911Z,76.43
2023-03-03T14:36:11.893Z,75.57
2023-03-03T14:38:44.461Z,75.17
2023-03-03T14:41:17.342Z,73.73
2023-03-03T14:43:47.368Z,74.97
2023-03-03T14:46:33.586Z,78.10
2023-03-03T14:49:03.673Z,75.73
2023-03-03T14:51:41.775Z,73.93
2023-03-03T14:54:17.588Z,77.07
2023-03-03T14:57:01.969Z,66.13
2023-03-03T14:59:30.232Z,78.73
2023-03-03T15:02:29.622Z,72.43
2023-03-03T15:05:17.503Z,69.60
2023-03-03T15:07:48.144Z,71.73
2023-03-03T15:10:32.537Z,75.37
2023-03-03T15:13:11.028Z,76.50
2023-03-03T15:15:52.909Z,70.87
2023-03-03T15:18:21.719Z,70.70
2023-03-03T15:20:57.396Z,70.47
2023-03-03T15:23:45.100Z,69.10
2023-03-03T15:26:20.342Z,65.50
2023-03-03T15:29:01.724Z,70.47
2023-03-03T15:31:38.716Z,69.97
2023-03-03T15:34:26.714Z,65.77
2023-03-03T15:37:03.433Z,69.40
2023-03-03T15:39:42.241Z,68.17
2023-03-03T15:42:15.406Z,68.63
2023-03-03T15:44:57.547Z,69.07
2023-03-03T15:47:46.196Z,71.23
2023-03-03T15:50:27.747Z,69.13
2023-03-03T15:53:09.189Z,68.77
2023-03-03T15:55:53.652Z,71.40
2023-03-03T15:58:52.091Z,72.33
2023-03-03T16:01:27.807Z,69.10
2023-03-03T16:03:59.063Z,69.33
2023-03-03T16:06:39.830Z,71.47
2023-03-03T16:09:19.556Z,68.53
2023-03-03T16:11:55.946Z,67.90
2023-03-03T16:15:01.958Z,67.87
2023-03-03T16:17:37.923Z,67.53
2023-03-03T16:20:16.671Z,69.13
2023-03-03T16:22:57.180Z,72.37
2023-03-03T16:25:43.824Z,74.67
2023-03-03T16:28:19.593Z,70.83
2023-03-03T16:30:53.779Z,61.73
2023-03-03T16:33:27.992Z,68.80
2023-03-03T16:36:04.643Z,63.27
2023-03-03T16:38:38.287Z,67.73
2023-03-03T16:41:10.274Z,67.63
2023-03-03T16:43:47.448Z,68.03
2023-03-03T16:46:26.609Z,69.87
2023-03-03T16:49:02.450Z,68.40
2023-03-03T16:51:42.646Z,73.63
2023-03-03T16:54:17.373Z,68.33
2023-03-03T16:56:52.832Z,67.97
2023-03-03T16:59:53.089Z,67.53
2023-03-03T17:02:49.498Z,65.10
2023-03-03T17:05:30.455Z,70.30
2023-03-03T17:08:20.112Z,68.77
2023-03-03T17:10:53.337Z,68.73
2023-03-03T17:13:46.908Z,67.63
2023-03-03T17:16:23.579Z,67.27
2023-03-03T17:19:05.540Z,68.07
2023-03-03T17:21:42.766Z,67.50
2023-03-03T17:24:19.492Z,73.37
2023-03-03T17:26:59.429Z,75.37
2023-03-03T17:29:59.547Z,70.67
2023-03-03T17:32:53.557Z,71.10
2023-03-03T17:35:57.240Z,76.40
2023-03-03T17:38:37.362Z,72.53
2023-03-03T17:41:10.420Z,72.63
2023-03-03T17:43:48.990Z,72.23
2023-03-03T17:46:22.350Z,72.70
2023-03-03T17:49:11.240Z,75.00
2023-03-03T17:51:55.236Z,68.03
2023-03-03T17:54:44.432Z,72.83
2023-03-03T17:57:26.873Z,69.37
2023-03-03T18:00:26.529Z,72.10
2023-03-03T18:03:35.394Z,75.03
2023-03-03T18:06:54.190Z,68.70
2023-03-03T18:09:37.942Z,74.23
2023-03-03T18:12:13.586Z,74.60
2023-03-03T18:15:07.968Z,77.13
2023-03-03T18:17:52.700Z,73.80
2023-03-03T18:20:34.105Z,73.20
2023-03-03T18:23:29.517Z,73.90
2023-03-03T18:26:00.157Z,76.03
2023-03-03T18:28:45.301Z,73.73
2023-03-03T18:31:24.338Z,80.90
2023-03-03T18:34:09.380Z,74.47
2023-03-03T18:36:40.375Z,71.13
2023-03-03T18:39:15.384Z,73.17
2023-03-03T18:42:10.410Z,73.00
2023-03-03T18:44:38.570Z,76.63
2023-03-03T18:47:06.751Z,76.90
2023-03-03T18:50:16.184Z,78.47
2023-03-03T18:53:14.530Z,77.73
2023-03-03T18:55:44.936Z,72.53
2023-03-03T18:58:42.212Z,77.40
2023-03-03T19:01:41.846Z,83.30
2023-03-03T19:04:25.183Z,77.10
2023-03-03T19:07:14.201Z,75.47
2023-03-03T19:09:56.812Z,80.87
2023-03-03T19:12:54.642Z,85.20
2023-03-03T19:15:57.224Z,80.60
2023-03-03T19:18:27.846Z,82.80
2023-03-03T19:21:01.676Z,79.67
2023-03-03T19:23:51.106Z,71.73
2023-03-03T19:26:42.056Z,72.00
2023-03-03T19:29:26.093Z,78.40
2023-03-03T19:32:06.438Z,75.47
2023-03-03T19:34:41.204Z,79.73
2023-03-03T19:37:23.390Z,78.20
2023-03-03T19:40:00.915Z,78.30
2023-03-03T19:42:47.430Z,79.67
2023-03-03T19:45:34.345Z,81.63
2023-03-03T19:48:08.470Z,78.47
2023-03-03T19:50:49.114Z,81.37
2023-03-03T19:53:26.734Z,83.37
2023-03-03T19:56:07.437Z,82.97
2023-03-03T19:58:45.031Z,83.43
2023-03-03T20:01:24.403Z,82.13
2023-03-03T20:04:17.548Z,77.67
2023-03-03T20:06:56.119Z,79.73
2023-03-03T20:09:42.725Z,77.37
2023-03-03T20:12:39.191Z,85.10
2023-03-03T20:15:15.929Z,79.13
2023-03-03T20:18:21.475Z,83.47
2023-03-03T20:21:01.732Z,85.20
2023-03-03T20:23:36.567Z,82.37
2023-03-03T20:26:13.783Z,82.23
2023-03-03T20:28:57.797Z,76.07
2023-03-03T20:31:33.848Z,85.63
2023-03-03T20:34:11.181Z,83.40
2023-03-03T20:36:50.587Z,84.13
2023-03-03T20:39:29.627Z,84.83
2023-03-03T20:42:09.374Z,87.53
2023-03-03T20:45:00.543Z,82.93
2023-03-03T20:47:39.633Z,82.83
2023-03-03T20:50:22.768Z,85.50
2023-03-03T20:53:07.677Z,85.70
2023-03-03T20:55:44.344Z,88.63
2023-03-03T20:58:20.232Z,91.33
2023-03-03T21:00:53.926Z,89.67
2023-03-03T21:03:29.780Z,88.20
2023-03-03T21:06:00.772Z,86.67
2023-03-03T21:08:44.903Z,82.83
2023-03-03T21:11:14.601Z,88.40
2023-03-03T21:13:44.299Z,86.37
2023-03-03T21:16:30.304Z,90.00
2023-03-03T21:18:59.064Z,88.57
2023-03-03T21:21:29.766Z,90.57
2023-03-03T21:23:59.649Z,90.80
2023-03-03T21:26:55.865Z,87.03
2023-03-03T21:29:26.684Z,83.10
2023-03-03T21:31:56.209Z,86.43
2023-03-03T21:34:30.228Z,83.00
2023-03-03T21:36:59.480Z,89.27
2023-03-03T21:39:30.921Z,92.87
2023-03-03T21:42:01.908Z,90.77
2023-03-03T21:44:32.320Z,101.97
2023-03-03T21:47:00.379Z,94.10
2023-03-03T21:49:28.715Z,94.57
2023-03-03T21:51:57.664Z,96.37
2023-03-03T21:54:25.809Z,94.40
2023-03-03T21:56:55.141Z,89.13
2023-03-03T21:59:23.064Z,91.30
2023-03-03T22:01:50.975Z,92.30
2023-03-03T22:04:19.076Z,93.50
2023-03-03T22:06:47.063Z,89.20
2023-03-03T22:09:15.382Z,92.17
2023-03-03T22:11:43.314Z,95.37
2023-03-03T22:14:12.853Z,100.00
2023-03-03T22:16:40.859Z,86.17
2023-03-03T22:19:10.227Z,77.17
2023-03-03T22:21:39.077Z,78.80
2023-03-03T22:24:07.844Z,85.83
2023-03-03T22:26:36.632Z,88.77
2023-03-03T22:29:05.000Z,82.70
2023-03-03T22:31:34.358Z,80.33
2023-03-03T22:34:02.332Z,85.17
2023-03-03T22:36:30.259Z,81.60
2023-03-03T22:38:58.176Z,76.20
2023-03-03T22:41:26.059Z,86.43
2023-03-03T22:43:54.002Z,73.53
2023-03-03T22:46:21.977Z,79.87
2023-03-03T22:48:51.479Z,82.70
2023-03-03T22:51:22.077Z,82.07
2023-03-03T22:53:50.218Z,83.87
2023-03-03T22:56:18.164Z,85.40
2023-03-03T22:58:46.110Z,84.67
2023-03-03T23:01:14.188Z,82.07
2023-03-03T23:03:42.169Z,85.60
2023-03-03T23:06:11.406Z,90.30
2023-03-03T23:08:39.400Z,85.93
2023-03-03T23:11:07.305Z,86.90
2023-03-03T23:13:35.357Z,83.20
2023-03-03T23:16:03.463Z,82.87
2023-03-03T23:18:31.478Z,78.87
2023-03-03T23:20:59.473Z,78.73
2023-03-03T23:23:29.694Z,82.57
2023-03-03T23:25:57.933Z,78.50
2023-03-03T23:28:25.885Z,80.30
2023-03-03T23:30:53.812Z,77.97
2023-03-03T23:33:21.857Z,85.73
2023-03-03T23:35:49.941Z,86.13
2023-03-03T23:38:17.966Z,85.07
2023-03-03T23:40:47.707Z,84.30
2023-03-03T23:43:15.704Z,72.43
2023-03-03T23:45:43.758Z,79.33
2023-03-03T23:48:11.916Z,73.20
2023-03-03T23:50:40.032Z,78.00
2023-03-03T23:53:08.928Z,76.97
2023-03-03T23:55:37.717Z,80.77
2023-03-03T23:58:07.241Z,83.37
